createdAt,value
2023-04-28T00:00:19.032Z,100578.50
2023-04-28T00:03:04.661Z,100582.78
2023-04-28T00:05:49.750Z,100564.16
2023-04-28T00:08:35.263Z,100569.78
2023-04-28T00:11:20.725Z,100564.53
2023-04-28T00:14:06.233Z,100547.69
2023-04-28T00:16:51.727Z,100564.41
2023-04-28T00:19:36.794Z,100556.53
2023-04-28T00:22:22.027Z,100557.13
2023-04-28T00:25:08.184Z,100557.13
2023-04-28T00:27:53.148Z,100552.13
2023-04-28T00:30:38.486Z,100551.88
2023-04-28T00:33:23.452Z,100549.16
2023-04-28T00:36:09.440Z,100546.53
2023-04-28T00:38:54.475Z,100535.53
2023-04-28T00:41:42.577Z,100534.13
2023-04-28T00:44:27.822Z,100538.41
2023-04-28T00:47:13.323Z,100521.50
2023-04-28T00:49:59.731Z,100535.78
2023-04-28T00:52:45.191Z,100529.72
2023-04-28T00:55:34.892Z,100529.63
2023-04-28T00:58:19.834Z,100528.66
2023-04-28T01:01:06.764Z,100520.88
2023-04-28T01:03:51.915Z,100530.09
2023-04-28T01:06:38.422Z,100522.09
2023-04-28T01:09:23.711Z,100522.00
2023-04-28T01:12:08.891Z,100525.53
2023-04-28T01:14:54.287Z,100517.09
2023-04-28T01:17:39.810Z,100519.22
2023-04-28T01:20:24.991Z,100527.25
2023-04-28T01:23:13.501Z,100516.13
2023-04-28T01:25:58.536Z,100528.78
2023-04-28T01:28:43.571Z,100526.16
2023-04-28T01:31:30.899Z,100523.53
2023-04-28T01:34:16.340Z,100527.72
2023-04-28T01:37:01.804Z,100515.91
2023-04-28T01:39:47.018Z,100518.88
2023-04-28T01:42:36.936Z,100515.31
2023-04-28T01:45:22.297Z,100522.56
2023-04-28T01:48:07.371Z,100522.47
2023-04-28T01:50:52.718Z,100504.34
2023-04-28T01:53:37.463Z,100519.00
2023-04-28T01:56:22.505Z,100522.41
2023-04-28T01:59:07.771Z,100525.72
2023-04-28T02:01:52.730Z,100528.22
2023-04-28T02:04:39.047Z,100525.38
2023-04-28T02:07:24.320Z,100514.13
2023-04-28T02:10:09.954Z,100508.06
2023-04-28T02:12:55.161Z,100502.94
2023-04-28T02:15:43.823Z,100506.41
2023-04-28T02:18:31.193Z,100512.81
2023-04-28T02:21:16.197Z,100520.59
2023-04-28T02:24:01.386Z,100520.69
2023-04-28T02:26:46.425Z,100510.06
2023-04-28T02:29:31.964Z,100510.06
2023-04-28T02:32:16.970Z,100507.34
2023-04-28T02:35:02.143Z,100503.75
2023-04-28T02:37:47.466Z,100499.22
2023-04-28T02:40:33.022Z,100490.97
2023-04-28T02:43:18.288Z,100501.47
2023-04-28T02:46:04.788Z,100506.72
2023-04-28T02:48:49.696Z,100495.41
2023-04-28T02:51:34.737Z,100490.16
2023-04-28T02:54:27.554Z,100506.72
2023-04-28T02:57:13.132Z,100510.91
2023-04-28T02:59:58.130Z,100515.34
2023-04-28T03:02:43.555Z,100507.81
2023-04-28T03:05:28.566Z,100507.81
2023-04-28T03:08:13.816Z,100515.94
2023-04-28T03:10:58.757Z,100520.22
2023-04-28T03:13:43.862Z,100508.78
2023-04-28T03:16:29.243Z,100513.88
2023-04-28T03:19:14.332Z,100502.22
2023-04-28T03:21:59.296Z,100509.94
2023-04-28T03:24:44.252Z,100505.66
2023-04-28T03:27:29.426Z,100508.41
2023-04-28T03:30:14.762Z,100498.84
2023-04-28T03:32:59.949Z,100494.56
2023-04-28T03:35:44.945Z,100502.44
2023-04-28T03:38:29.977Z,100499.09
2023-04-28T03:41:15.281Z,100511.47
2023-04-28T03:44:00.559Z,100498.00
2023-04-28T03:46:45.944Z,100504.53
2023-04-28T03:49:31.017Z,100514.59
2023-04-28T03:52:16.271Z,100506.00
2023-04-28T03:55:01.660Z,100511.72
2023-04-28T03:57:46.848Z,100516.00
2023-04-28T04:00:31.995Z,100516.97
2023-04-28T04:03:17.407Z,100513.97
2023-04-28T04:06:03.138Z,100508.88
2023-04-28T04:08:48.524Z,100508.13
2023-04-28T04:11:33.721Z,100528.66
2023-04-28T04:14:19.015Z,100532.25
2023-04-28T04:17:04.244Z,100529.63
2023-04-28T04:19:49.232Z,100534.88
2023-04-28T04:22:34.004Z,100525.69
2023-04-28T04:25:19.748Z,100520.28
2023-04-28T04:28:06.192Z,100530.19
2023-04-28T04:30:51.386Z,100531.03
2023-04-28T04:33:37.631Z,100532.94
2023-04-28T04:36:22.733Z,100530.53
2023-04-28T04:39:07.958Z,100520.63
2023-04-28T04:41:52.927Z,100525.53
2023-04-28T04:44:37.845Z,100534.72
2023-04-28T04:47:22.985Z,100538.41
2023-04-28T04:50:08.730Z,100538.16
2023-04-28T04:52:56.554Z,100544.00
2023-04-28T04:55:41.761Z,100539.56
2023-04-28T04:58:27.148Z,100547.56
2023-04-28T05:01:12.415Z,100536.50
2023-04-28T05:03:57.821Z,100532.31
2023-04-28T05:06:43.145Z,100548.41
2023-04-28T05:09:29.796Z,100545.69
2023-04-28T05:12:15.064Z,100556.88
2023-04-28T05:15:00.432Z,100564.41
2023-04-28T05:17:45.682Z,100546.50
2023-04-28T05:20:30.860Z,100561.31
2023-04-28T05:23:16.763Z,100568.25
2023-04-28T05:26:03.142Z,100568.97
2023-04-28T05:28:48.463Z,100572.44
2023-04-28T05:31:33.679Z,100579.34
2023-04-28T05:34:19.137Z,100580.91
2023-04-28T05:37:04.482Z,100568.25
2023-04-28T05:39:49.713Z,100569.19
2023-04-28T05:42:34.676Z,100574.56
2023-04-28T05:45:19.591Z,100589.59
2023-04-28T05:48:05.213Z,100596.53
2023-04-28T05:50:50.862Z,100588.53
2023-04-28T05:53:35.936Z,100581.25
2023-04-28T05:56:21.325Z,100590.09
2023-04-28T05:59:06.569Z,100601.31
2023-04-28T06:01:51.825Z,100606.34
2023-04-28T06:04:38.591Z,100602.88
2023-04-28T06:07:23.928Z,100616.72
2023-04-28T06:10:09.940Z,100604.78
2023-04-28T06:12:55.223Z,100602.88
2023-04-28T06:15:40.196Z,100611.00
2023-04-28T06:18:25.140Z,100615.09
2023-04-28T06:21:11.007Z,100610.28
2023-04-28T06:23:56.533Z,100614.38
2023-04-28T06:26:41.672Z,100615.34
2023-04-28T06:29:27.848Z,100616.06
2023-04-28T06:32:12.802Z,100614.16
2023-04-28T06:34:58.624Z,100598.78
2023-04-28T06:37:44.252Z,100609.16
2023-04-28T06:40:29.400Z,100614.53
2023-04-28T06:43:14.455Z,100609.28
2023-04-28T06:45:59.388Z,100618.00
2023-04-28T06:48:45.002Z,100626.16
2023-04-28T06:51:32.925Z,100631.84
2023-04-28T06:54:18.646Z,100630.41
2023-04-28T06:57:04.052Z,100633.53
2023-04-28T06:59:49.252Z,100634.31
2023-04-28T07:02:35.303Z,100634.19
2023-04-28T07:05:20.236Z,100634.03
2023-04-28T07:08:05.446Z,100642.91
2023-04-28T07:10:50.578Z,100638.97
2023-04-28T07:13:35.604Z,100623.66
2023-04-28T07:16:21.980Z,100644.25
2023-04-28T07:19:06.900Z,100643.38
2023-04-28T07:21:51.890Z,100642.91
2023-04-28T07:24:37.476Z,100660.09
2023-04-28T07:27:23.244Z,100644.81
2023-04-28T07:30:19.287Z,100650.56
2023-04-28T07:33:12.024Z,100667.59
2023-04-28T07:35:56.918Z,100665.44
2023-04-28T07:38:42.213Z,100666.00
2023-04-28T07:41:27.914Z,100678.56
2023-04-28T07:44:13.209Z,100680.97
2023-04-28T07:47:00.076Z,100687.75
2023-04-28T07:49:45.511Z,100688.94
2023-04-28T07:52:31.821Z,100693.13
2023-04-28T07:55:17.066Z,100707.50
2023-04-28T07:58:02.621Z,100694.72
2023-04-28T08:00:47.837Z,100704.78
2023-04-28T08:03:33.053Z,100709.44
2023-04-28T08:06:19.055Z,100709.19
2023-04-28T08:09:06.033Z,100708.56
2023-04-28T08:11:51.382Z,100703.91
2023-04-28T08:14:36.623Z,100705.31
2023-04-28T08:17:21.824Z,100712.72
2023-04-28T08:20:07.673Z,100695.59
2023-04-28T08:22:52.894Z,100716.50
2023-04-28T08:25:38.229Z,100717.53
2023-04-28T08:28:23.241Z,100722.16
2023-04-28T08:31:09.061Z,100719.25
2023-04-28T08:33:55.628Z,100718.44
2023-04-28T08:36:40.963Z,100698.69
2023-04-28T08:39:27.980Z,100724.47
2023-04-28T08:42:13.438Z,100732.75
2023-04-28T08:45:01.923Z,100731.28
2023-04-28T08:47:49.890Z,100732.47
2023-04-28T08:50:37.950Z,100732.47
2023-04-28T08:53:25.855Z,100739.22
2023-04-28T08:56:13.768Z,100740.56
2023-04-28T08:59:06.253Z,100738.50
2023-04-28T09:01:51.884Z,100736.31
2023-04-28T09:04:37.402Z,100725.91
2023-04-28T09:07:23.151Z,100739.56
2023-04-28T09:10:20.781Z,100736.44
2023-04-28T09:13:06.184Z,100728.41
2023-04-28T09:15:51.764Z,100733.13
2023-04-28T09:18:36.756Z,100739.66
2023-04-28T09:21:21.915Z,100749.66
2023-04-28T09:24:07.177Z,100743.16
2023-04-28T09:26:54.130Z,100742.94
2023-04-28T09:29:53.008Z,100748.91
2023-04-28T09:32:37.954Z,100751.28
2023-04-28T09:35:47.869Z,100763.47
2023-04-28T09:38:44.010Z,100762.22
2023-04-28T09:41:43.386Z,100741.03
2023-04-28T09:44:28.320Z,100759.47
2023-04-28T09:47:23.579Z,100764.63
2023-04-28T09:50:12.728Z,100762.81
2023-04-28T09:52:59.159Z,100765.44
2023-04-28T09:55:46.803Z,100752.78
2023-04-28T09:58:34.278Z,100763.94
2023-04-28T10:01:19.433Z,100762.81
2023-04-28T10:04:06.460Z,100772.56
2023-04-28T10:06:51.885Z,100760.47
2023-04-28T10:09:38.155Z,100778.69
2023-04-28T10:12:24.501Z,100775.50
2023-04-28T10:15:10.710Z,100777.50
2023-04-28T10:17:56.532Z,100775.81
2023-04-28T10:20:58.113Z,100782.94
2023-04-28T10:23:53.882Z,100770.41
2023-04-28T10:27:04.491Z,100779.00
2023-04-28T10:29:49.856Z,100781.38
2023-04-28T10:32:35.024Z,100799.59
2023-04-28T10:35:32.535Z,100813.19
2023-04-28T10:38:19.426Z,100806.31
2023-04-28T10:41:04.611Z,100817.75
2023-04-28T10:43:50.408Z,100819.81
2023-04-28T10:47:04.321Z,100816.97
2023-04-28T10:49:58.178Z,100815.44
2023-04-28T10:52:46.218Z,100816.03
2023-04-28T10:55:36.531Z,100814.72
2023-04-28T10:58:27.870Z,100812.13
2023-04-28T11:01:19.540Z,100822.28
2023-04-28T11:04:13.481Z,100822.03
2023-04-28T11:07:19.878Z,100824.38
2023-04-28T11:10:05.429Z,100833.84
2023-04-28T11:13:26.172Z,100822.28
2023-04-28T11:16:17.473Z,100824.81
2023-04-28T11:19:04.983Z,100829.66
2023-04-28T11:21:51.861Z,100831.06
2023-04-28T11:24:37.288Z,100831.59
2023-04-28T11:27:27.043Z,100828.28
2023-04-28T11:30:22.689Z,100833.16
2023-04-28T11:33:09.541Z,100841.31
2023-04-28T11:35:54.770Z,100832.22
2023-04-28T11:38:44.131Z,100831.09
2023-04-28T11:41:29.256Z,100825.34
2023-04-28T11:44:19.787Z,100846.78
2023-04-28T11:47:06.591Z,100840.28
2023-04-28T11:49:52.024Z,100846.00
2023-04-28T11:52:37.376Z,100854.50
2023-04-28T11:55:22.395Z,100857.06
2023-04-28T11:58:24.009Z,100859.75
2023-04-28T12:01:15.325Z,100865.72
2023-04-28T12:04:00.751Z,100865.00
2023-04-28T12:06:46.060Z,100867.66
2023-04-28T12:09:32.574Z,100879.06
2023-04-28T12:12:45.184Z,100885.19
2023-04-28T12:15:41.468Z,100875.00
2023-04-28T12:18:27.608Z,100867.22
2023-04-28T12:21:21.548Z,100889.34
2023-04-28T12:24:21.001Z,100880.72
2023-04-28T12:27:21.970Z,100889.50
2023-04-28T12:30:19.579Z,100888.13
2023-04-28T12:33:05.030Z,100882.25
2023-04-28T12:35:50.435Z,100900.22
2023-04-28T12:38:35.733Z,100886.53
2023-04-28T12:41:20.953Z,100908.44
2023-04-28T12:44:06.215Z,100907.34
2023-04-28T12:46:52.122Z,100905.16
2023-04-28T12:49:37.678Z,100907.41
2023-04-28T12:52:22.766Z,100910.66
2023-04-28T12:55:08.578Z,100916.31
2023-04-28T12:57:54.668Z,100914.38
2023-04-28T13:00:41.801Z,100914.41
2023-04-28T13:03:27.906Z,100922.66
2023-04-28T13:06:13.031Z,100930.41
2023-04-28T13:08:57.917Z,100927.81
2023-04-28T13:11:43.392Z,100913.19
2023-04-28T13:14:29.011Z,100929.03
2023-04-28T13:17:14.370Z,100925.22
2023-04-28T13:20:01.233Z,100929.00
2023-04-28T13:22:46.603Z,100931.50
2023-04-28T13:25:31.855Z,100925.91
2023-04-28T13:28:17.204Z,100939.06
2023-04-28T13:31:02.378Z,100929.81
2023-04-28T13:33:47.271Z,100948.31
2023-04-28T13:36:33.145Z,100936.66
2023-04-28T13:39:20.300Z,100943.13
2023-04-28T13:42:07.137Z,100944.31
2023-04-28T13:44:52.517Z,100943.88
2023-04-28T13:47:37.731Z,100948.91
2023-04-28T13:50:22.972Z,100949.78
2023-04-28T13:53:08.397Z,100954.75
2023-04-28T13:55:53.966Z,100950.41
2023-04-28T13:58:39.422Z,100940.78
2023-04-28T14:01:25.275Z,100938.28
2023-04-28T14:04:11.094Z,100936.25
2023-04-28T14:06:56.912Z,100935.78
2023-04-28T14:09:42.481Z,100934.81
2023-04-28T14:12:28.553Z,100936.22
2023-04-28T14:15:13.490Z,100931.41
2023-04-28T14:17:58.854Z,100952.34
2023-04-28T14:20:44.512Z,100932.22
2023-04-28T14:23:35.929Z,100943.00
2023-04-28T14:26:21.007Z,100933.38
2023-04-28T14:29:06.423Z,100947.31
2023-04-28T14:31:51.863Z,100947.28
2023-04-28T14:34:37.565Z,100943.44
2023-04-28T14:37:22.686Z,100945.25
2023-04-28T14:40:08.732Z,100941.50
2023-04-28T14:42:53.950Z,100947.63
2023-04-28T14:45:38.928Z,100950.06
2023-04-28T14:48:24.419Z,100956.56
2023-04-28T14:51:10.368Z,100961.47
2023-04-28T14:53:55.561Z,100960.94
2023-04-28T14:56:40.612Z,100953.38
2023-04-28T14:59:26.234Z,100965.88
2023-04-28T15:02:11.911Z,100962.25
2023-04-28T15:04:57.468Z,100960.94
2023-04-28T15:07:42.838Z,100967.91
2023-04-28T15:10:39.458Z,100963.63
2023-04-28T15:13:25.355Z,100962.31
2023-04-28T15:16:10.812Z,100962.63
2023-04-28T15:18:55.960Z,100964.41
2023-04-28T15:21:41.693Z,100965.78
2023-04-28T15:24:26.525Z,100959.47
2023-04-28T15:27:11.728Z,100965.34
2023-04-28T15:29:57.358Z,100970.28
2023-04-28T15:32:43.242Z,100970.84
2023-04-28T15:35:28.790Z,100975.19
2023-04-28T15:38:13.931Z,100975.91
2023-04-28T15:40:59.176Z,100979.50
2023-04-28T15:43:46.087Z,100982.38
2023-04-28T15:46:32.106Z,100976.97
2023-04-28T15:49:17.362Z,100984.22
2023-04-28T15:52:02.609Z,100992.56
2023-04-28T15:54:47.786Z,100997.41
2023-04-28T15:57:32.865Z,100995.09
2023-04-28T16:00:18.612Z,100998.00
2023-04-28T16:03:04.399Z,101006.31
2023-04-28T16:05:49.758Z,100992.69
2023-04-28T16:08:35.575Z,101011.88
2023-04-28T16:11:21.194Z,100997.81
2023-04-28T16:14:06.431Z,101014.47
2023-04-28T16:16:51.904Z,101014.28
2023-04-28T16:19:38.218Z,101025.59
2023-04-28T16:22:25.309Z,101017.91
2023-04-28T16:25:12.276Z,101016.16
2023-04-28T16:27:57.621Z,101012.06
2023-04-28T16:30:43.332Z,101012.63
2023-04-28T16:33:28.478Z,101016.28
2023-04-28T16:36:13.487Z,101004.38
2023-04-28T16:38:58.716Z,101025.41
2023-04-28T16:41:44.053Z,101038.78
2023-04-28T16:44:30.471Z,101038.91
2023-04-28T16:47:16.020Z,101041.38
2023-04-28T16:50:01.001Z,101044.00
2023-04-28T16:52:46.403Z,101050.44
2023-04-28T16:55:31.682Z,101040.81
2023-04-28T16:58:17.068Z,101051.03
2023-04-28T17:01:02.382Z,101051.97
2023-04-28T17:03:50.708Z,101048.63
2023-04-28T17:06:36.000Z,101049.50
2023-04-28T17:09:22.326Z,101060.72
2023-04-28T17:12:07.777Z,101059.72
2023-04-28T17:14:53.095Z,101063.53
2023-04-28T17:17:38.692Z,101066.63
2023-04-28T17:20:23.584Z,101080.28
2023-04-28T17:23:08.973Z,101079.81
2023-04-28T17:25:54.288Z,101086.00
2023-04-28T17:28:40.868Z,101079.28
2023-04-28T17:31:27.229Z,101093.78
2023-04-28T17:34:12.668Z,101093.94
2023-04-28T17:36:58.103Z,101098.56
2023-04-28T17:39:43.521Z,101097.03
2023-04-28T17:42:30.990Z,101102.09
2023-04-28T17:45:16.597Z,101100.63
2023-04-28T17:48:01.660Z,101107.06
2023-04-28T17:50:46.918Z,101104.53
2023-04-28T17:53:31.995Z,101104.31
2023-04-28T17:56:17.108Z,101105.72
2023-04-28T17:59:02.170Z,101094.59
2023-04-28T18:01:47.142Z,101119.13
2023-04-28T18:04:32.739Z,101108.16
2023-04-28T18:07:18.079Z,101128.50
2023-04-28T18:10:03.685Z,101116.63
2023-04-28T18:12:48.498Z,101099.38
2023-04-28T18:15:33.383Z,101124.06
2023-04-28T18:18:19.558Z,101133.97
2023-04-28T18:21:04.707Z,101137.75
2023-04-28T18:23:49.539Z,101138.31
2023-04-28T18:26:34.769Z,101149.34
2023-04-28T18:29:20.410Z,101136.94
2023-04-28T18:32:05.649Z,101147.41
2023-04-28T18:34:50.987Z,101141.09
2023-04-28T18:37:37.133Z,101149.63
2023-04-28T18:40:22.722Z,101159.94
2023-04-28T18:43:10.325Z,101152.13
2023-04-28T18:45:55.531Z,101148.78
2023-04-28T18:48:40.850Z,101163.72
2023-04-28T18:51:26.188Z,101167.44
2023-04-28T18:54:11.558Z,101169.38
2023-04-28T18:56:57.304Z,101173.56
2023-04-28T18:59:42.597Z,101187.78
2023-04-28T19:02:27.898Z,101192.91
2023-04-28T19:05:13.481Z,101194.03
2023-04-28T19:07:58.838Z,101201.13
2023-04-28T19:10:43.782Z,101202.22
2023-04-28T19:13:28.723Z,101205.25
2023-04-28T19:16:13.731Z,101211.09
2023-04-28T19:18:58.725Z,101203.53
2023-04-28T19:21:44.502Z,101221.78
2023-04-28T19:24:29.699Z,101224.69
2023-04-28T19:27:15.003Z,101232.31
2023-04-28T19:30:01.265Z,101226.84
2023-04-28T19:32:46.649Z,101225.38
2023-04-28T19:35:31.613Z,101249.72
2023-04-28T19:38:18.102Z,101266.53
2023-04-28T19:41:03.358Z,101267.06
2023-04-28T19:43:48.647Z,101276.22
2023-04-28T19:46:33.848Z,101273.13
2023-04-28T19:49:19.378Z,101272.69
2023-04-28T19:52:05.382Z,101274.66
2023-04-28T19:54:51.488Z,101282.13
2023-04-28T19:57:37.177Z,101287.06
2023-04-28T20:00:24.289Z,101303.91
2023-04-28T20:03:09.723Z,101293.19
2023-04-28T20:05:55.386Z,101307.97
2023-04-28T20:08:40.438Z,101308.47
2023-04-28T20:11:25.586Z,101306.19
2023-04-28T20:14:10.779Z,101315.59
2023-04-28T20:16:56.337Z,101312.75
2023-04-28T20:19:41.720Z,101319.72
2023-04-28T20:22:27.178Z,101322.72
2023-04-28T20:25:12.639Z,101311.94
2023-04-28T20:27:58.028Z,101313.50
2023-04-28T20:30:43.017Z,101332.44
2023-04-28T20:33:28.688Z,101323.78
2023-04-28T20:36:13.731Z,101326.59
2023-04-28T20:38:59.258Z,101344.13
2023-04-28T20:41:44.525Z,101352.38
2023-04-28T20:44:29.709Z,101358.94
2023-04-28T20:47:14.694Z,101358.53
2023-04-28T20:50:00.373Z,101366.31
2023-04-28T20:52:45.688Z,101349.97
2023-04-28T20:55:30.855Z,101369.63
2023-04-28T20:58:16.220Z,101367.72
2023-04-28T21:01:01.823Z,101376.63
2023-04-28T21:03:47.087Z,101374.56
2023-04-28T21:06:32.180Z,101383.00
2023-04-28T21:09:17.592Z,101387.91
2023-04-28T21:12:02.823Z,101386.88
2023-04-28T21:14:48.425Z,101387.09
2023-04-28T21:17:33.730Z,101392.06
2023-04-28T21:20:19.006Z,101380.38
2023-04-28T21:23:04.322Z,101391.25
2023-04-28T21:25:49.500Z,101385.25
2023-04-28T21:28:35.770Z,101392.41
2023-04-28T21:31:21.760Z,101401.50
2023-04-28T21:34:07.619Z,101401.25
2023-04-28T21:36:52.702Z,101403.78
2023-04-28T21:39:38.058Z,101404.28
2023-04-28T21:42:22.954Z,101403.56
2023-04-28T21:45:09.541Z,101419.97
2023-04-28T21:47:56.033Z,101412.06
2023-04-28T21:50:41.394Z,101419.66
2023-04-28T21:53:26.753Z,101427.13
2023-04-28T21:56:12.018Z,101424.50
2023-04-28T21:58:57.300Z,101430.03
2023-04-28T22:01:42.717Z,101428.59
2023-04-28T22:04:28.782Z,101436.03
2023-04-28T22:07:13.930Z,101432.44
2023-04-28T22:09:59.174Z,101435.16
2023-04-28T22:12:44.423Z,101436.41
2023-04-28T22:15:29.629Z,101438.69
2023-04-28T22:18:14.435Z,101437.22
2023-04-28T22:21:01.061Z,101432.53
2023-04-28T22:23:46.305Z,101433.28
2023-04-28T22:26:35.187Z,101449.47
2023-04-28T22:29:20.699Z,101446.38
2023-04-28T22:32:08.298Z,101449.13
2023-04-28T22:34:53.309Z,101436.84
2023-04-28T22:37:38.972Z,101446.41
2023-04-28T22:40:23.925Z,101454.69
2023-04-28T22:43:09.064Z,101444.66
2023-04-28T22:45:54.413Z,101455.88
2023-04-28T22:48:39.704Z,101468.56
2023-04-28T22:51:25.442Z,101462.81
2023-04-28T22:54:11.151Z,101463.03
2023-04-28T22:56:56.120Z,101458.25
2023-04-28T22:59:41.909Z,101459.38
2023-04-28T23:02:27.049Z,101455.56
2023-04-28T23:05:12.666Z,101475.03
2023-04-28T23:07:57.868Z,101463.91
2023-04-28T23:10:42.933Z,101472.88
2023-04-28T23:13:28.084Z,101471.66
2023-04-28T23:16:13.517Z,101463.22
2023-04-28T23:18:58.465Z,101472.13
2023-04-28T23:21:43.797Z,101472.38
2023-04-28T23:24:29.105Z,101476.13
2023-04-28T23:27:14.210Z,101462.06
2023-04-28T23:29:59.471Z,101474.03
2023-04-28T23:32:45.447Z,101470.88
2023-04-28T23:35:31.980Z,101480.03
2023-04-28T23:38:17.277Z,101475.88
2023-04-28T23:41:02.396Z,101464.16
2023-04-28T23:43:47.634Z,101483.75
2023-04-28T23:46:32.987Z,101460.03
2023-04-28T23:49:18.634Z,101477.59
2023-04-28T23:52:03.977Z,101481.31
2023-04-28T23:54:49.077Z,101465.53
2023-04-28T23:57:34.293Z,101477.44
